Time;durP1;ratioP1;P1;durP2;ratioP2;P2;SDS_P1;SDS_P2;PMS_P1;PMS_P2;Temp;Humidity;BMP_temperature;BMP_pressure;BME280_temperature;BME280_humidity;BME280_pressure;Samples;Min_cycle;Max_cycle;Signal;HPM_P1;HPM_P2
2021/10/30 00:00:21;;;;;;;19.38;12.73;;;;;;;;;;5094232;28;20022;-73
2021/10/30 00:02:47;;;;;;;14.05;9.15;;;;;;;;;;5094690;28;20024;-73
2021/10/30 00:05:14;;;;;;;14.95;10.70;;;;;;;;;;5110751;28;20152;-73
2021/10/30 00:07:41;;;;;;;14.68;8.60;;;;;;;;;;5095186;28;20498;-73
2021/10/30 00:10:08;;;;;;;14.32;9.13;;;;;;;;;;5094507;28;20070;-73
2021/10/30 00:12:34;;;;;;;18.02;9.70;;;;;;;;;;5095102;28;20085;-73
2021/10/30 00:15:01;;;;;;;24.23;15.77;;;;;;;;;;5094811;28;20027;-73
2021/10/30 00:17:27;;;;;;;54.58;31.80;;;;;;;;;;5094464;28;20043;-73
2021/10/30 00:19:53;;;;;;;45.05;29.85;;;;;;;;;;5094931;28;20024;-73
2021/10/30 00:22:20;;;;;;;45.08;30.35;;;;;;;;;;5094593;28;20024;-73
2021/10/30 00:24:46;;;;;;;85.40;56.03;;;;;;;;;;5094283;28;20041;-73
2021/10/30 00:27:14;;;;;;;98.05;61.97;;;;;;;;;;5094771;28;20055;-72
2021/10/30 00:29:40;;;;;;;92.40;62.08;;;;;;;;;;5094491;28;20024;-72
2021/10/30 00:32:07;;;;;;;104.40;64.00;;;;;;;;;;5094071;28;20024;-73
2021/10/30 00:34:33;;;;;;;78.40;46.05;;;;;;;;;;5094476;28;20016;-72
2021/10/30 00:36:59;;;;;;;66.53;39.03;;;;;;;;;;5094404;28;20039;-73
2021/10/30 00:39:25;;;;;;;64.68;36.85;;;;;;;;;;5094015;28;20173;-72
2021/10/30 00:41:52;;;;;;;81.13;46.53;;;;;;;;;;5094284;28;20028;-73
2021/10/30 00:44:19;;;;;;;92.50;58.72;;;;;;;;;;5094108;28;20024;-72
2021/10/30 00:46:46;;;;;;;82.88;47.88;;;;;;;;;;5094138;28;20028;-73
2021/10/30 00:49:13;;;;;;;56.22;34.90;;;;;;;;;;5094143;28;20329;-73
2021/10/30 00:51:40;;;;;;;44.75;30.73;;;;;;;;;;5093683;28;20055;-73
2021/10/30 00:54:07;;;;;;;46.03;31.77;;;;;;;;;;5094025;28;20020;-73
2021/10/30 00:56:33;;;;;;;47.92;31.45;;;;;;;;;;5093854;28;20055;-72
2021/10/30 00:59:01;;;;;;;60.38;35.20;;;;;;;;;;5093643;28;20059;-72
2021/10/30 01:01:28;;;;;;;53.72;32.30;;;;;;;;;;5092632;28;20360;-74
2021/10/30 01:03:54;;;;;;;53.88;32.85;;;;;;;;;;5094114;28;20024;-73
2021/10/30 01:06:21;;;;;;;44.45;27.48;;;;;;;;;;5092891;28;20099;-73
2021/10/30 01:08:47;;;;;;;40.58;24.45;;;;;;;;;;5092503;28;20111;-73
2021/10/30 01:11:15;;;;;;;31.33;19.90;;;;;;;;;;5092586;28;20446;-73
2021/10/30 01:13:42;;;;;;;21.40;13.82;;;;;;;;;;5093523;28;20032;-73
2021/10/30 01:16:09;;;;;;;16.30;10.98;;;;;;;;;;5092368;28;20032;-73
2021/10/30 01:18:35;;;;;;;13.68;9.40;;;;;;;;;;5093654;28;20483;-73
2021/10/30 01:21:01;;;;;;;19.35;11.15;;;;;;;;;;5093276;28;20369;-73
2021/10/30 01:23:28;;;;;;;19.17;11.30;;;;;;;;;;5093468;28;20482;-72
2021/10/30 01:25:58;;;;;;;18.33;10.90;;;;;;;;;;5093898;28;20031;-72
2021/10/30 01:28:29;;;;;;;19.05;11.82;;;;;;;;;;5093154;28;20125;-72
2021/10/30 01:30:55;;;;;;;15.20;9.75;;;;;;;;;;5093399;28;20106;-72
2021/10/30 01:33:22;;;;;;;17.33;9.65;;;;;;;;;;5093454;28;20032;-72
2021/10/30 01:35:48;;;;;;;19.45;12.55;;;;;;;;;;5092809;28;20103;-72
2021/10/30 01:38:15;;;;;;;25.52;14.75;;;;;;;;;;5093475;28;20028;-73
2021/10/30 01:40:42;;;;;;;36.05;21.27;;;;;;;;;;5092791;28;20125;-73
2021/10/30 01:43:09;;;;;;;43.72;26.13;;;;;;;;;;5093310;28;20491;-73
2021/10/30 01:45:35;;;;;;;41.42;26.58;;;;;;;;;;5093212;28;20111;-73
2021/10/30 01:48:02;;;;;;;44.25;27.05;;;;;;;;;;5092914;28;20073;-73
2021/10/30 01:50:29;;;;;;;36.72;22.63;;;;;;;;;;5092894;28;20051;-73
2021/10/30 01:52:58;;;;;;;31.92;18.90;;;;;;;;;;5092729;28;20378;-72
2021/10/30 01:55:24;;;;;;;35.97;18.70;;;;;;;;;;5092916;28;20067;-72
2021/10/30 01:57:50;;;;;;;34.10;20.00;;;;;;;;;;5091518;28;20044;-73
2021/10/30 02:00:17;;;;;;;35.08;21.45;;;;;;;;;;5093050;28;20330;-72
2021/10/30 02:02:43;;;;;;;34.28;20.70;;;;;;;;;;5092606;28;20054;-72
2021/10/30 02:05:10;;;;;;;33.83;21.10;;;;;;;;;;5093002;28;20024;-73
2021/10/30 02:07:37;;;;;;;39.30;24.23;;;;;;;;;;5093109;28;20099;-72
2021/10/30 02:10:04;;;;;;;40.63;25.05;;;;;;;;;;5092829;28;20031;-73
2021/10/30 02:12:30;;;;;;;36.85;22.40;;;;;;;;;;5091676;28;20060;-72
2021/10/30 02:14:56;;;;;;;36.25;22.10;;;;;;;;;;5092971;28;20031;-72
2021/10/30 02:17:23;;;;;;;43.03;24.98;;;;;;;;;;5092513;28;20032;-73
2021/10/30 02:19:49;;;;;;;45.08;25.55;;;;;;;;;;5097005;28;20485;-72
2021/10/30 02:22:15;;;;;;;32.85;20.35;;;;;;;;;;5097211;28;20035;-72
2021/10/30 02:24:42;;;;;;;35.05;19.15;;;;;;;;;;5096634;28;20373;-72
2021/10/30 02:27:08;;;;;;;37.28;20.17;;;;;;;;;;5096764;28;20470;-73
2021/10/30 02:29:34;;;;;;;81.05;42.17;;;;;;;;;;5096898;28;20028;-72
2021/10/30 02:32:02;;;;;;;94.97;47.13;;;;;;;;;;5096305;28;20046;-72
2021/10/30 02:34:28;;;;;;;98.30;47.78;;;;;;;;;;5097163;28;20013;-72
2021/10/30 02:36:55;;;;;;;97.32;52.65;;;;;;;;;;5096236;28;20040;-72
2021/10/30 02:39:21;;;;;;;116.07;60.28;;;;;;;;;;5097037;28;20020;-72
2021/10/30 02:41:47;;;;;;;122.78;60.22;;;;;;;;;;5096580;28;20360;-72
2021/10/30 02:44:13;;;;;;;112.10;56.35;;;;;;;;;;5096247;28;20016;-73
2021/10/30 02:46:40;;;;;;;86.57;46.10;;;;;;;;;;5096572;28;20095;-72
2021/10/30 02:49:06;;;;;;;80.03;44.90;;;;;;;;;;5096499;28;20386;-73
2021/10/30 02:51:32;;;;;;;87.15;45.72;;;;;;;;;;5096424;28;20035;-73
2021/10/30 02:53:59;;;;;;;72.40;41.42;;;;;;;;;;5096641;28;20373;-73
2021/10/30 02:56:25;;;;;;;50.08;29.10;;;;;;;;;;5096094;28;20040;-73
2021/10/30 02:58:51;;;;;;;38.78;22.10;;;;;;;;;;5095877;28;20042;-73
2021/10/30 03:01:18;;;;;;;33.13;19.52;;;;;;;;;;5096246;28;20142;-72
2021/10/30 03:03:44;;;;;;;32.15;19.60;;;;;;;;;;5096525;28;20024;-72
2021/10/30 03:06:10;;;;;;;31.25;16.77;;;;;;;;;;5094493;28;20368;-73
2021/10/30 03:08:36;;;;;;;32.30;16.60;;;;;;;;;;5096042;28;20099;-72
2021/10/30 03:11:03;;;;;;;30.10;17.52;;;;;;;;;;5095992;28;20031;-73
2021/10/30 03:13:29;;;;;;;34.58;18.33;;;;;;;;;;5095826;28;20099;-72
2021/10/30 03:15:55;;;;;;;38.00;18.80;;;;;;;;;;5095947;28;20028;-72
2021/10/30 03:18:22;;;;;;;33.78;18.45;;;;;;;;;;5096036;28;20047;-72
2021/10/30 03:20:48;;;;;;;31.85;18.50;;;;;;;;;;5094214;28;20042;-72
2021/10/30 03:23:15;;;;;;;32.90;16.80;;;;;;;;;;5094579;28;20485;-72
2021/10/30 03:25:41;;;;;;;29.77;17.25;;;;;;;;;;5096165;28;20490;-72
2021/10/30 03:28:07;;;;;;;29.90;18.92;;;;;;;;;;5095174;28;20016;-72
2021/10/30 03:30:36;;;;;;;45.25;21.92;;;;;;;;;;5095407;28;20047;-72
2021/10/30 03:33:02;;;;;;;30.10;18.55;;;;;;;;;;5095303;28;20016;-72
2021/10/30 03:35:28;;;;;;;25.85;16.42;;;;;;;;;;5095637;28;20020;-72
2021/10/30 03:37:54;;;;;;;26.10;14.90;;;;;;;;;;5095411;28;20444;-72
2021/10/30 03:40:20;;;;;;;32.80;18.63;;;;;;;;;;5093820;28;20376;-72
2021/10/30 03:42:47;;;;;;;48.83;26.55;;;;;;;;;;5096062;28;20047;-73
2021/10/30 03:45:14;;;;;;;44.80;25.20;;;;;;;;;;5094711;28;20016;-72
2021/10/30 03:47:40;;;;;;;48.42;26.63;;;;;;;;;;5095199;28;20061;-72
2021/10/30 03:50:07;;;;;;;36.30;20.73;;;;;;;;;;5094568;28;20044;-73
2021/10/30 03:52:33;;;;;;;26.92;16.95;;;;;;;;;;5094075;28;20020;-72
2021/10/30 03:54:59;;;;;;;22.45;15.00;;;;;;;;;;5094775;28;20103;-72
2021/10/30 03:57:25;;;;;;;21.95;13.63;;;;;;;;;;5094692;28;20154;-72
2021/10/30 03:59:51;;;;;;;16.63;12.40;;;;;;;;;;5094949;28;20386;-72
2021/10/30 04:02:19;;;;;;;18.67;10.93;;;;;;;;;;5094441;28;20024;-72
2021/10/30 04:04:45;;;;;;;18.38;11.65;;;;;;;;;;5094867;28;20020;-72
2021/10/30 04:07:11;;;;;;;21.77;12.65;;;;;;;;;;5095186;28;20024;-72
2021/10/30 04:09:37;;;;;;;23.48;12.85;;;;;;;;;;5094853;28;20073;-72
2021/10/30 04:12:04;;;;;;;19.48;11.45;;;;;;;;;;5095172;28;20024;-72
2021/10/30 04:14:30;;;;;;;27.08;14.60;;;;;;;;;;5095055;28;20020;-72
2021/10/30 04:16:56;;;;;;;18.73;12.20;;;;;;;;;;5094391;28;20032;-73
2021/10/30 04:19:23;;;;;;;26.40;16.73;;;;;;;;;;5093545;28;20016;-72
2021/10/30 04:21:49;;;;;;;22.65;14.02;;;;;;;;;;5094778;28;20107;-73
2021/10/30 04:24:15;;;;;;;23.92;15.27;;;;;;;;;;5094319;28;20029;-72
2021/10/30 04:26:41;;;;;;;21.25;14.25;;;;;;;;;;5093837;28;20052;-72
2021/10/30 04:29:08;;;;;;;31.58;20.13;;;;;;;;;;5094508;28;20028;-73
2021/10/30 04:31:34;;;;;;;52.05;32.67;;;;;;;;;;5094112;28;20080;-72
2021/10/30 04:34:05;;;;;;;44.03;25.67;;;;;;;;;;5094705;28;20095;-73
2021/10/30 04:36:33;;;;;;;40.33;21.58;;;;;;;;;;5094085;28;20020;-72
2021/10/30 04:39:00;;;;;;;30.20;19.13;;;;;;;;;;5094419;28;20499;-72
2021/10/30 04:41:26;;;;;;;28.58;16.02;;;;;;;;;;5093520;28;20095;-72
2021/10/30 04:43:52;;;;;;;35.53;19.13;;;;;;;;;;5093976;28;20073;-72
2021/10/30 04:46:20;;;;;;;27.92;17.17;;;;;;;;;;5094314;28;20028;-73
2021/10/30 04:48:47;;;;;;;29.23;16.95;;;;;;;;;;5094303;28;20418;-73
2021/10/30 04:51:13;;;;;;;26.00;16.17;;;;;;;;;;5093817;28;20058;-72
2021/10/30 04:53:41;;;;;;;22.40;14.73;;;;;;;;;;5094411;28;20361;-73
2021/10/30 04:56:08;;;;;;;34.40;19.20;;;;;;;;;;5093963;28;20389;-73
2021/10/30 04:58:34;;;;;;;27.20;17.48;;;;;;;;;;5093719;28;20028;-72
2021/10/30 05:01:01;;;;;;;25.85;15.80;;;;;;;;;;5094302;28;20065;-72
2021/10/30 05:03:28;;;;;;;29.48;18.63;;;;;;;;;;5094080;28;20024;-72
2021/10/30 05:05:55;;;;;;;29.73;18.02;;;;;;;;;;5093718;28;20028;-73
2021/10/30 05:08:21;;;;;;;23.25;14.70;;;;;;;;;;5093978;28;20463;-72
2021/10/30 05:10:47;;;;;;;20.08;13.73;;;;;;;;;;5093836;28;20043;-73
2021/10/30 05:13:13;;;;;;;24.48;16.63;;;;;;;;;;5093513;28;20100;-73
2021/10/30 05:15:40;;;;;;;21.85;14.25;;;;;;;;;;5094350;28;20070;-73
2021/10/30 05:18:06;;;;;;;19.63;12.90;;;;;;;;;;5093733;28;20126;-73
2021/10/30 05:20:32;;;;;;;19.73;12.15;;;;;;;;;;5093277;28;20052;-73
2021/10/30 05:22:58;;;;;;;22.00;13.55;;;;;;;;;;5093679;28;20494;-72
2021/10/30 05:25:25;;;;;;;17.73;11.93;;;;;;;;;;5093819;28;20051;-72
2021/10/30 05:27:51;;;;;;;20.33;12.50;;;;;;;;;;5093285;28;20020;-72
2021/10/30 05:30:17;;;;;;;26.17;15.52;;;;;;;;;;5093555;28;20024;-72
2021/10/30 05:32:43;;;;;;;31.42;16.73;;;;;;;;;;5093274;28;20020;-73
2021/10/30 05:35:09;;;;;;;25.13;15.43;;;;;;;;;;5093797;28;20028;-73
2021/10/30 05:37:36;;;;;;;29.33;16.25;;;;;;;;;;5092157;28;20457;-73
2021/10/30 05:40:06;;;;;;;29.92;20.17;;;;;;;;;;5093401;28;20099;-73
2021/10/30 05:42:33;;;;;;;41.90;23.40;;;;;;;;;;5093566;28;20020;-73
2021/10/30 05:44:59;;;;;;;52.13;32.13;;;;;;;;;;5093507;28;20020;-73
2021/10/30 05:47:26;;;;;;;41.03;25.48;;;;;;;;;;5093288;28;20024;-72
2021/10/30 05:49:53;;;;;;;38.17;25.08;;;;;;;;;;5093464;28;20031;-76
2021/10/30 05:52:19;;;;;;;46.58;30.42;;;;;;;;;;5093584;28;20092;-74
2021/10/30 05:54:45;;;;;;;51.60;32.78;;;;;;;;;;5093279;28;20028;-74
2021/10/30 05:57:11;;;;;;;59.88;38.97;;;;;;;;;;5092976;28;20135;-74
2021/10/30 05:59:37;;;;;;;64.40;38.80;;;;;;;;;;5093252;28;20059;-73
2021/10/30 06:02:05;;;;;;;60.70;36.80;;;;;;;;;;5092712;28;20051;-72
2021/10/30 06:04:31;;;;;;;66.45;40.58;;;;;;;;;;5093381;28;20098;-72
2021/10/30 06:06:58;;;;;;;61.28;39.67;;;;;;;;;;5093110;28;20031;-73
2021/10/30 06:09:24;;;;;;;56.75;34.50;;;;;;;;;;5092701;28;20016;-72
2021/10/30 06:11:50;;;;;;;41.00;24.73;;;;;;;;;;5093071;28;20031;-73
2021/10/30 06:14:16;;;;;;;44.15;25.45;;;;;;;;;;5093267;28;20027;-72
2021/10/30 06:16:42;;;;;;;42.10;24.90;;;;;;;;;;5092674;28;20529;-73
2021/10/30 06:19:08;;;;;;;50.63;28.08;;;;;;;;;;5093027;28;20356;-72
2021/10/30 06:21:35;;;;;;;72.60;40.92;;;;;;;;;;5092904;28;20052;-72
2021/10/30 06:24:01;;;;;;;61.72;36.30;;;;;;;;;;5092564;28;20039;-73
2021/10/30 06:26:28;;;;;;;49.10;30.77;;;;;;;;;;5093031;28;20051;-72
2021/10/30 06:28:54;;;;;;;52.53;34.00;;;;;;;;;;5092635;28;20028;-72
2021/10/30 06:31:21;;;;;;;59.95;36.15;;;;;;;;;;5093448;28;20023;-72
2021/10/30 06:33:47;;;;;;;59.67;32.30;;;;;;;;;;5092771;28;20028;-72
2021/10/30 06:36:13;;;;;;;44.63;29.15;;;;;;;;;;5091227;28;20115;-72
2021/10/30 06:38:40;;;;;;;77.13;39.70;;;;;;;;;;5092993;28;20133;-73
2021/10/30 06:41:06;;;;;;;61.80;34.45;;;;;;;;;;5092834;28;20099;-72
2021/10/30 06:43:33;;;;;;;105.03;50.05;;;;;;;;;;5092489;28;20353;-72
2021/10/30 06:45:59;;;;;;;69.97;34.67;;;;;;;;;;5093146;28;20025;-73
2021/10/30 06:48:26;;;;;;;70.57;41.35;;;;;;;;;;5092870;28;20440;-72
2021/10/30 06:50:53;;;;;;;58.38;36.53;;;;;;;;;;5092396;28;20027;-73
2021/10/30 06:53:20;;;;;;;58.42;37.78;;;;;;;;;;5092958;28;20028;-73
2021/10/30 06:55:47;;;;;;;57.05;34.42;;;;;;;;;;5092877;28;20020;-72
2021/10/30 06:58:14;;;;;;;48.80;31.30;;;;;;;;;;5092322;28;20036;-73
2021/10/30 07:00:41;;;;;;;41.30;22.85;;;;;;;;;;5092650;28;20387;-72
2021/10/30 07:03:08;;;;;;;27.73;17.60;;;;;;;;;;5092705;28;20028;-73
2021/10/30 07:05:34;;;;;;;23.25;14.82;;;;;;;;;;5095799;28;20024;-73
2021/10/30 07:08:01;;;;;;;48.75;27.25;;;;;;;;;;5096422;28;20020;-73
2021/10/30 07:10:27;;;;;;;33.63;22.15;;;;;;;;;;5096363;28;20383;-73
2021/10/30 07:12:53;;;;;;;29.33;19.52;;;;;;;;;;5096003;28;20091;-73
2021/10/30 07:15:19;;;;;;;55.53;33.35;;;;;;;;;;5096284;28;20484;-73
2021/10/30 07:17:45;;;;;;;32.67;22.02;;;;;;;;;;5096330;28;20036;-73
2021/10/30 07:20:12;;;;;;;30.40;18.23;;;;;;;;;;5095748;28;20460;-73
2021/10/30 07:22:47;;;;;;;44.40;28.35;;;;;;;;;;5096030;28;20036;-73
2021/10/30 07:25:14;;;;;;;32.30;21.65;;;;;;;;;;5095901;28;20476;-72
2021/10/30 07:27:42;;;;;;;32.05;21.38;;;;;;;;;;5095912;28;20028;-73
2021/10/30 07:30:09;;;;;;;32.55;16.98;;;;;;;;;;5095849;28;20468;-72
2021/10/30 07:32:35;;;;;;;22.45;13.73;;;;;;;;;;5094137;28;20030;-73
2021/10/30 07:35:02;;;;;;;21.40;13.05;;;;;;;;;;5094490;28;20119;-73
2021/10/30 07:37:29;;;;;;;26.45;15.43;;;;;;;;;;5095669;28;20032;-74
2021/10/30 07:39:55;;;;;;;20.70;12.73;;;;;;;;;;5095330;28;20483;-74
2021/10/30 07:42:22;;;;;;;23.48;13.68;;;;;;;;;;5095716;28;20032;-74
2021/10/30 07:44:48;;;;;;;30.67;16.45;;;;;;;;;;5095723;28;20016;-73
2021/10/30 07:47:14;;;;;;;22.58;13.55;;;;;;;;;;5095167;28;20073;-73
2021/10/30 07:49:41;;;;;;;24.55;15.48;;;;;;;;;;5095932;28;20504;-74
2021/10/30 07:52:08;;;;;;;19.23;12.98;;;;;;;;;;5095499;28;20031;-72
2021/10/30 07:54:34;;;;;;;17.30;10.90;;;;;;;;;;5095167;28;20487;-72
2021/10/30 07:57:07;;;;;;;19.80;12.10;;;;;;;;;;5095085;28;20491;-72
2021/10/30 07:59:34;;;;;;;23.25;13.73;;;;;;;;;;5095469;28;20035;-72
2021/10/30 08:02:01;;;;;;;20.55;12.20;;;;;;;;;;5095006;28;20055;-73
2021/10/30 08:04:31;;;;;;;22.73;11.40;;;;;;;;;;5095250;28;20024;-73
2021/10/30 08:06:57;;;;;;;16.63;10.57;;;;;;;;;;5093789;28;20430;-73
2021/10/30 08:11:36;;;;;;;20.50;12.68;;;;;;;;;;5111756;27;20462;-72
2021/10/30 08:14:03;;;;;;;15.63;10.05;;;;;;;;;;5111177;28;20072;-74
2021/10/30 08:16:29;;;;;;;22.73;12.23;;;;;;;;;;5110749;28;20024;-72
2021/10/30 08:18:55;;;;;;;24.98;14.52;;;;;;;;;;5110981;28;20035;-72
2021/10/30 08:21:23;;;;;;;32.35;17.75;;;;;;;;;;5109485;28;20032;-72
2021/10/30 08:23:49;;;;;;;19.88;11.38;;;;;;;;;;5110438;28;20073;-72
2021/10/30 08:26:16;;;;;;;20.50;12.73;;;;;;;;;;5110757;28;20077;-73
2021/10/30 08:28:42;;;;;;;23.23;14.05;;;;;;;;;;5110420;28;20410;-71
2021/10/30 08:31:09;;;;;;;18.33;12.32;;;;;;;;;;5110646;28;20031;-71
2021/10/30 08:33:35;;;;;;;20.15;10.50;;;;;;;;;;5110707;28;20450;-73
2021/10/30 08:36:02;;;;;;;18.63;11.07;;;;;;;;;;5110441;28;20425;-72
2021/10/30 08:38:28;;;;;;;15.30;10.38;;;;;;;;;;5110885;28;20046;-72
2021/10/30 08:41:05;;;;;;;21.45;11.65;;;;;;;;;;5111858;27;20396;-74
2021/10/30 08:44:07;;;;;;;19.42;11.43;;;;;;;;;;5110917;27;20937;-74
2021/10/30 08:47:00;;;;;;;17.48;10.65;;;;;;;;;;5111244;27;20475;-73
2021/10/30 08:50:36;;;;;;;18.65;10.32;;;;;;;;;;5111126;27;20397;-72
2021/10/30 08:53:03;;;;;;;14.45;9.45;;;;;;;;;;5111308;28;20375;-74
2021/10/30 08:55:29;;;;;;;16.45;10.07;;;;;;;;;;5111302;28;20077;-74
2021/10/30 08:58:10;;;;;;;16.20;10.30;;;;;;;;;;5110874;27;20389;-73
2021/10/30 09:00:47;;;;;;;18.48;11.57;;;;;;;;;;5109859;28;20038;-74
2021/10/30 09:03:13;;;;;;;18.23;11.07;;;;;;;;;;5111232;28;20027;-74
2021/10/30 09:09:18;;;;;;;14.25;9.23;;;;;;;;;;5131808;27;20119;-74
2021/10/30 09:11:53;;;;;;;16.88;10.77;;;;;;;;;;5111511;28;20054;-74
2021/10/30 09:15:48;;;;;;;14.43;9.50;;;;;;;;;;5173348;27;20588;-73
2021/10/30 09:18:32;;;;;;;20.98;10.25;;;;;;;;;;5133479;27;20082;-73
2021/10/30 09:22:02;;;;;;;16.58;9.88;;;;;;;;;;5070754;28;20454;-74
2021/10/30 09:24:28;;;;;;;17.77;10.25;;;;;;;;;;5070615;28;20495;-74
2021/10/30 09:26:54;;;;;;;16.17;10.25;;;;;;;;;;5070161;28;20021;-73
2021/10/30 09:29:20;;;;;;;35.17;20.20;;;;;;;;;;5070859;28;20025;-74
2021/10/30 09:31:46;;;;;;;31.38;19.40;;;;;;;;;;5052377;28;20052;-73
2021/10/30 09:38:23;;;;;;;29.88;17.15;;;;;;;;;;5111803;27;20447;-72
2021/10/30 09:40:50;;;;;;;14.40;9.88;;;;;;;;;;5110830;28;20020;-72
2021/10/30 09:43:18;;;;;;;15.57;10.50;;;;;;;;;;5110965;28;20028;-72
2021/10/30 09:48:41;;;;;;;17.75;10.63;;;;;;;;;;5111369;27;20393;-74
2021/10/30 09:51:07;;;;;;;23.95;12.23;;;;;;;;;;5111122;28;20559;-74
2021/10/30 09:55:40;;;;;;;14.93;9.15;;;;;;;;;;5111753;27;20843;-74
2021/10/30 09:58:06;;;;;;;22.10;10.98;;;;;;;;;;5111165;28;20468;-74
2021/10/30 10:05:47;;;;;;;15.73;9.02;;;;;;;;;;5111438;27;20466;-73
2021/10/30 10:10:13;;;;;;;12.68;8.85;;;;;;;;;;5110720;27;20462;-74
2021/10/30 10:14:27;;;;;;;14.82;8.85;;;;;;;;;;5111319;27;20850;-74
2021/10/30 10:16:54;;;;;;;12.43;7.35;;;;;;;;;;5111117;28;20028;-74
2021/10/30 10:19:50;;;;;;;19.25;9.43;;;;;;;;;;5111968;27;20389;-74
2021/10/30 10:24:11;;;;;;;15.77;9.23;;;;;;;;;;5111430;27;20447;-74
2021/10/30 10:26:47;;;;;;;10.80;7.45;;;;;;;;;;5111214;28;20035;-74
2021/10/30 10:29:14;;;;;;;18.83;7.97;;;;;;;;;;5110766;28;20022;-73
2021/10/30 10:32:27;;;;;;;13.07;7.35;;;;;;;;;;5111640;27;20392;-74
2021/10/30 10:37:14;;;;;;;14.13;7.30;;;;;;;;;;5110708;27;20117;-75
2021/10/30 10:39:41;;;;;;;13.77;7.07;;;;;;;;;;5111005;28;20073;-73
2021/10/30 10:42:08;;;;;;;15.85;7.70;;;;;;;;;;5111179;28;20080;-74
2021/10/30 10:44:43;;;;;;;10.77;6.63;;;;;;;;;;5110576;28;20061;-74
2021/10/30 10:47:11;;;;;;;12.10;7.07;;;;;;;;;;5110843;28;20031;-75
2021/10/30 10:51:20;;;;;;;14.00;6.28;;;;;;;;;;5110839;27;20794;-74
2021/10/30 10:57:51;;;;;;;14.43;7.97;;;;;;;;;;5110922;27;20458;-74
2021/10/30 11:04:20;;;;;;;10.63;6.20;;;;;;;;;;5110761;27;20446;-73
2021/10/30 11:06:46;;;;;;;10.20;6.18;;;;;;;;;;5111060;28;20028;-73
2021/10/30 11:09:13;;;;;;;9.45;5.75;;;;;;;;;;5110811;28;20027;-74
2021/10/30 11:11:40;;;;;;;11.48;6.60;;;;;;;;;;5110990;28;20020;-75
2021/10/30 11:14:06;;;;;;;10.27;5.97;;;;;;;;;;5111247;28;20024;-74
2021/10/30 11:16:41;;;;;;;11.18;7.22;;;;;;;;;;5110740;28;20542;-74
2021/10/30 11:20:39;;;;;;;11.68;6.50;;;;;;;;;;5111341;27;20736;-74
2021/10/30 11:23:09;;;;;;;10.85;5.43;;;;;;;;;;5112004;28;20357;-75
2021/10/30 11:27:08;;;;;;;13.55;7.13;;;;;;;;;;5111194;27;20392;-75
2021/10/30 11:31:22;;;;;;;9.15;5.45;;;;;;;;;;5111124;27;20802;-73
2021/10/30 11:33:58;;;;;;;9.40;5.45;;;;;;;;;;5110778;28;20028;-75
2021/10/30 11:36:25;;;;;;;10.20;5.50;;;;;;;;;;5111166;28;20073;-75
2021/10/30 11:39:31;;;;;;;11.07;6.07;;;;;;;;;;5111075;27;20795;-74
2021/10/30 11:42:57;;;;;;;11.38;5.93;;;;;;;;;;5111310;27;20393;-75
2021/10/30 11:45:24;;;;;;;9.18;5.13;;;;;;;;;;5111360;28;20441;-74
2021/10/30 11:47:52;;;;;;;9.45;5.50;;;;;;;;;;5110664;28;20020;-74
2021/10/30 11:50:18;;;;;;;10.77;5.63;;;;;;;;;;5111260;28;20092;-74
2021/10/30 11:55:29;;;;;;;9.85;5.57;;;;;;;;;;5111055;27;20446;-74
2021/10/30 11:57:55;;;;;;;11.88;5.95;;;;;;;;;;5111215;28;20024;-72
2021/10/30 12:01:54;;;;;;;11.38;5.88;;;;;;;;;;5111451;27;20400;-74
2021/10/30 12:06:15;;;;;;;10.93;5.60;;;;;;;;;;5131726;27;20828;-74
2021/10/30 12:08:42;;;;;;;11.50;7.50;;;;;;;;;;5110686;28;20028;-74
2021/10/30 12:11:09;;;;;;;14.85;8.07;;;;;;;;;;5110958;28;20020;-74
2021/10/30 12:15:17;;;;;;;10.00;5.00;;;;;;;;;;5110932;27;20396;-73
2021/10/30 12:17:43;;;;;;;8.20;4.95;;;;;;;;;;5111296;28;20031;-74
2021/10/30 12:20:10;;;;;;;9.77;5.57;;;;;;;;;;5110994;28;20020;-74
2021/10/30 12:22:40;;;;;;;9.70;4.90;;;;;;;;;;5110648;28;20073;-74
2021/10/30 12:25:11;;;;;;;8.30;5.03;;;;;;;;;;5110957;28;20056;-73
2021/10/30 12:27:38;;;;;;;12.25;5.72;;;;;;;;;;5110891;28;20020;-73
2021/10/30 12:30:12;;;;;;;9.90;5.28;;;;;;;;;;5111109;28;20020;-73
2021/10/30 12:34:33;;;;;;;7.78;4.45;;;;;;;;;;5111169;27;20396;-74
2021/10/30 12:37:06;;;;;;;12.52;5.78;;;;;;;;;;5110788;28;20028;-75
2021/10/30 12:39:32;;;;;;;8.80;4.38;;;;;;;;;;5111110;28;20486;-75
2021/10/30 12:42:00;;;;;;;7.85;4.30;;;;;;;;;;5110693;28;20490;-74
2021/10/30 12:44:30;;;;;;;9.50;4.25;;;;;;;;;;5109681;28;20446;-74
2021/10/30 12:46:59;;;;;;;6.50;3.50;;;;;;;;;;5110908;28;20042;-74
2021/10/30 12:49:26;;;;;;;7.30;4.30;;;;;;;;;;5110548;28;20100;-74
2021/10/30 12:51:56;;;;;;;10.43;5.53;;;;;;;;;;5110943;28;20055;-77
2021/10/30 12:54:26;;;;;;;9.38;4.63;;;;;;;;;;5110868;28;20028;-75
2021/10/30 12:56:52;;;;;;;9.77;5.28;;;;;;;;;;5110434;28;20073;-75
2021/10/30 12:59:25;;;;;;;11.70;5.88;;;;;;;;;;5110806;28;20031;-76
2021/10/30 13:01:54;;;;;;;9.27;5.03;;;;;;;;;;5110767;28;20016;-75
2021/10/30 13:04:31;;;;;;;14.45;6.80;;;;;;;;;;5110299;28;20024;-74
2021/10/30 13:06:59;;;;;;;12.82;5.88;;;;;;;;;;5110533;28;20019;-74
2021/10/30 13:09:26;;;;;;;10.70;4.55;;;;;;;;;;5110567;28;20048;-74
2021/10/30 13:11:52;;;;;;;25.85;10.88;;;;;;;;;;5108623;28;20795;-74
2021/10/30 13:14:18;;;;;;;33.75;14.20;;;;;;;;;;5110707;28;20055;-73
2021/10/30 13:16:44;;;;;;;21.55;8.85;;;;;;;;;;5110341;28;20020;-74
2021/10/30 13:19:11;;;;;;;12.18;5.85;;;;;;;;;;5109867;28;20495;-74
2021/10/30 13:21:37;;;;;;;16.73;7.63;;;;;;;;;;5110200;28;20024;-73
2021/10/30 13:24:04;;;;;;;22.02;10.43;;;;;;;;;;5110069;28;20113;-73
2021/10/30 13:26:31;;;;;;;15.20;7.20;;;;;;;;;;5110123;28;20379;-73
2021/10/30 13:28:58;;;;;;;12.82;5.65;;;;;;;;;;5110140;28;20103;-73
2021/10/30 13:31:24;;;;;;;25.40;9.65;;;;;;;;;;5109977;28;20415;-73
2021/10/30 13:33:51;;;;;;;10.80;5.63;;;;;;;;;;5109914;28;20056;-74
2021/10/30 13:36:19;;;;;;;7.93;4.60;;;;;;;;;;5109942;28;20522;-74
2021/10/30 13:38:45;;;;;;;10.48;5.72;;;;;;;;;;5109983;28;20024;-74
2021/10/30 13:41:12;;;;;;;13.23;6.60;;;;;;;;;;5109922;28;20026;-74
2021/10/30 13:43:39;;;;;;;11.35;5.88;;;;;;;;;;5109577;28;20020;-74
2021/10/30 13:46:05;;;;;;;9.18;5.35;;;;;;;;;;5095530;28;20091;-75
2021/10/30 13:48:32;;;;;;;18.00;11.00;;;;;;;;;;5096290;28;20028;-75
2021/10/30 13:50:59;;;;;;;8.90;5.20;;;;;;;;;;5096537;28;20051;-75
2021/10/30 13:53:26;;;;;;;10.93;5.75;;;;;;;;;;5096022;28;20457;-76
2021/10/30 13:55:52;;;;;;;10.25;5.68;;;;;;;;;;5096066;28;20138;-73
2021/10/30 13:58:18;;;;;;;12.55;6.18;;;;;;;;;;5095997;28;20048;-73
2021/10/30 14:00:45;;;;;;;10.13;5.18;;;;;;;;;;5094599;28;20020;-72
2021/10/30 14:03:11;;;;;;;12.20;6.78;;;;;;;;;;5096081;28;20062;-73
2021/10/30 14:05:37;;;;;;;8.63;5.28;;;;;;;;;;5095918;28;20020;-73
2021/10/30 14:08:03;;;;;;;8.95;5.45;;;;;;;;;;5095297;28;20023;-74
2021/10/30 14:10:30;;;;;;;10.43;5.93;;;;;;;;;;5095380;28;20032;-73
2021/10/30 14:12:56;;;;;;;7.60;4.50;;;;;;;;;;5095374;28;20036;-73
2021/10/30 14:15:23;;;;;;;17.20;10.02;;;;;;;;;;5095181;28;20030;-73
2021/10/30 14:17:49;;;;;;;16.88;10.07;;;;;;;;;;5095850;28;20024;-73
2021/10/30 14:20:15;;;;;;;21.25;14.35;;;;;;;;;;5095420;28;20020;-72
2021/10/30 14:22:41;;;;;;;13.32;8.05;;;;;;;;;;5095535;28;20059;-72
2021/10/30 14:25:07;;;;;;;21.20;12.35;;;;;;;;;;5095677;28;20032;-72
2021/10/30 14:27:34;;;;;;;14.88;9.15;;;;;;;;;;5095080;28;20047;-72
2021/10/30 14:30:02;;;;;;;15.77;9.25;;;;;;;;;;5095872;28;20024;-72
2021/10/30 14:32:28;;;;;;;20.67;12.55;;;;;;;;;;5095023;28;20483;-72
2021/10/30 14:34:54;;;;;;;22.70;15.40;;;;;;;;;;5094973;28;20032;-72
2021/10/30 14:37:21;;;;;;;18.50;11.18;;;;;;;;;;5095190;28;20024;-72
2021/10/30 14:39:47;;;;;;;19.38;11.88;;;;;;;;;;5095190;28;20031;-71
2021/10/30 14:42:14;;;;;;;15.32;8.98;;;;;;;;;;5093761;28;20028;-72
2021/10/30 14:44:44;;;;;;;20.42;10.90;;;;;;;;;;5095373;28;20030;-72
2021/10/30 14:47:11;;;;;;;25.00;13.77;;;;;;;;;;5094626;28;20024;-72
2021/10/30 14:49:37;;;;;;;23.63;15.55;;;;;;;;;;5094605;28;20024;-73
2021/10/30 14:52:04;;;;;;;24.42;13.43;;;;;;;;;;5094779;28;20032;-73
2021/10/30 14:55:17;;;;;;;16.00;10.48;;;;;;;;;;5111134;27;20396;-72
2021/10/30 14:57:43;;;;;;;19.02;12.75;;;;;;;;;;5110515;28;20501;-72
2021/10/30 15:00:11;;;;;;;19.45;13.27;;;;;;;;;;5110819;28;20024;-73
2021/10/30 15:02:38;;;;;;;31.02;18.55;;;;;;;;;;5110895;28;20020;-72
2021/10/30 15:05:04;;;;;;;36.90;24.83;;;;;;;;;;5110910;28;20479;-71
2021/10/30 15:07:30;;;;;;;45.53;27.60;;;;;;;;;;5110846;28;20027;-72
2021/10/30 15:09:57;;;;;;;46.53;27.90;;;;;;;;;;5109091;28;20414;-72
2021/10/30 15:12:23;;;;;;;50.80;34.67;;;;;;;;;;5110625;28;20080;-72
2021/10/30 15:14:50;;;;;;;76.43;53.25;;;;;;;;;;5110641;28;20544;-72
2021/10/30 15:19:12;;;;;;;;;;;;;;;;;;5111882;27;20389;-72
2021/10/30 15:21:39;;;;;;;39.42;27.58;;;;;;;;;;5111252;28;19977;-72